createdAt,value
2023-05-11T00:02:17.278Z,18.53
2023-05-11T00:04:45.453Z,18.50
2023-05-11T00:07:13.542Z,18.49
2023-05-11T00:09:41.812Z,18.53
2023-05-11T00:12:09.878Z,18.56
2023-05-11T00:14:39.392Z,18.56
2023-05-11T00:17:07.508Z,18.55
2023-05-11T00:19:35.599Z,18.50
2023-05-11T00:22:03.712Z,18.50
2023-05-11T00:24:31.754Z,18.50
2023-05-11T00:26:59.808Z,18.55
2023-05-11T00:29:27.844Z,18.57
2023-05-11T00:31:57.309Z,18.57
2023-05-11T00:34:25.488Z,18.58
2023-05-11T00:36:55.191Z,18.58
2023-05-11T00:39:23.218Z,18.59
2023-05-11T00:41:51.260Z,18.62
2023-05-11T00:44:19.341Z,18.62
2023-05-11T00:46:47.790Z,18.63
2023-05-11T00:49:21.357Z,18.64
2023-05-11T00:51:49.444Z,18.61
2023-05-11T00:54:17.693Z,18.63
2023-05-11T00:56:46.300Z,18.65
2023-05-11T00:59:14.360Z,18.66
2023-05-11T01:01:42.465Z,18.69
2023-05-11T01:04:10.984Z,18.68
2023-05-11T01:06:48.946Z,18.73
2023-05-11T01:09:28.888Z,18.70
2023-05-11T01:12:08.123Z,18.65
2023-05-11T01:14:40.517Z,18.63
2023-05-11T01:17:12.936Z,18.64
2023-05-11T01:19:44.574Z,18.68
2023-05-11T01:22:29.931Z,18.63
2023-05-11T01:25:11.642Z,18.62
2023-05-11T01:27:50.389Z,18.57
2023-05-11T01:30:27.762Z,18.55
2023-05-11T01:32:59.480Z,18.52
2023-05-11T01:35:28.792Z,18.51
2023-05-11T01:37:59.563Z,18.52
2023-05-11T01:40:33.567Z,18.52
2023-05-11T01:43:04.950Z,18.56
2023-05-11T01:45:40.391Z,18.55
2023-05-11T01:48:12.668Z,18.54
2023-05-11T01:50:42.340Z,18.53
2023-05-11T01:53:13.053Z,18.53
2023-05-11T01:55:42.285Z,18.50
2023-05-11T01:58:11.698Z,18.48
2023-05-11T02:00:42.594Z,18.49
2023-05-11T02:03:11.953Z,18.52
2023-05-11T02:05:41.535Z,18.53
2023-05-11T02:08:10.132Z,18.51
2023-05-11T02:10:39.892Z,18.52
2023-05-11T02:13:09.926Z,18.50
2023-05-11T02:15:43.359Z,18.46
2023-05-11T02:18:15.667Z,18.48
2023-05-11T02:20:47.380Z,18.53
2023-05-11T02:23:17.537Z,18.49
2023-05-11T02:25:46.072Z,18.48
2023-05-11T02:28:14.143Z,18.47
2023-05-11T02:30:47.567Z,18.46
2023-05-11T02:33:20.700Z,18.44
2023-05-11T02:35:50.622Z,18.46
2023-05-11T02:38:19.645Z,18.48
2023-05-11T02:40:51.290Z,18.51
2023-05-11T02:43:25.497Z,18.49
2023-05-11T02:46:03.996Z,18.46
2023-05-11T02:48:37.688Z,18.43
2023-05-11T02:51:08.874Z,18.37
2023-05-11T02:53:43.959Z,18.36
2023-05-11T02:56:12.244Z,18.34
2023-05-11T02:58:40.568Z,18.30
2023-05-11T03:01:23.439Z,18.32
2023-05-11T03:03:51.997Z,18.34
2023-05-11T03:06:20.146Z,18.36
2023-05-11T03:08:48.379Z,18.33
2023-05-11T03:11:18.964Z,18.30
2023-05-11T03:13:50.124Z,18.25
2023-05-11T03:16:21.503Z,18.25
2023-05-11T03:18:52.192Z,18.28
2023-05-11T03:21:21.885Z,18.28
2023-05-11T03:23:51.200Z,18.27
2023-05-11T03:26:21.406Z,18.27
2023-05-11T03:28:51.948Z,18.19
2023-05-11T03:31:20.212Z,18.17
2023-05-11T03:33:48.527Z,18.19
2023-05-11T03:36:19.324Z,18.20
2023-05-11T03:38:48.547Z,18.23
2023-05-11T03:41:19.206Z,18.20
2023-05-11T03:43:53.456Z,18.22
2023-05-11T03:46:24.252Z,18.22
2023-05-11T03:48:53.848Z,18.17
2023-05-11T03:51:27.253Z,18.18
2023-05-11T03:53:56.013Z,18.18
2023-05-11T03:56:24.139Z,18.20
2023-05-11T03:58:54.311Z,18.20
2023-05-11T04:01:24.120Z,18.15
2023-05-11T04:03:54.850Z,18.11
2023-05-11T04:09:22.230Z,18.00
2023-05-11T04:11:51.126Z,18.00
2023-05-11T04:14:20.770Z,17.99
2023-05-11T04:16:49.716Z,18.04
2023-05-11T04:19:18.217Z,18.07
2023-05-11T04:21:48.009Z,18.09
2023-05-11T04:24:16.461Z,18.13
2023-05-11T04:26:44.918Z,18.14
2023-05-11T04:29:16.221Z,18.15
2023-05-11T04:31:44.990Z,18.08
2023-05-11T04:34:13.572Z,18.06
2023-05-11T04:36:42.811Z,18.08
2023-05-11T04:39:13.301Z,18.10
2023-05-11T04:41:41.712Z,18.04
2023-05-11T04:44:10.483Z,18.06
2023-05-11T04:46:39.997Z,18.05
2023-05-11T04:49:09.133Z,18.05
2023-05-11T04:51:40.728Z,17.96
2023-05-11T04:54:17.056Z,17.99
2023-05-11T04:56:47.364Z,17.97
2023-05-11T04:59:16.277Z,18.02
2023-05-11T05:01:44.753Z,18.09
2023-05-11T05:04:13.098Z,18.11
2023-05-11T05:06:41.435Z,18.13
2023-05-11T05:09:10.448Z,18.07
2023-05-11T05:11:38.875Z,18.11
2023-05-11T05:14:09.234Z,18.17
2023-05-11T05:16:37.692Z,18.21
2023-05-11T05:19:06.077Z,18.21
2023-05-11T05:21:35.926Z,18.19
2023-05-11T05:24:06.265Z,18.25
2023-05-11T05:26:34.750Z,18.25
2023-05-11T05:29:03.556Z,18.22
2023-05-11T05:31:33.431Z,18.21
2023-05-11T05:34:02.549Z,18.22
2023-05-11T05:36:31.140Z,18.27
2023-05-11T05:38:59.438Z,18.35
2023-05-11T05:41:28.033Z,18.42
2023-05-11T05:43:56.567Z,18.43
2023-05-11T05:46:24.867Z,18.50
2023-05-11T05:48:57.591Z,18.49
2023-05-11T05:51:25.968Z,18.48
2023-05-11T05:53:54.313Z,18.34
2023-05-11T05:56:23.147Z,18.36
2023-05-11T05:58:51.508Z,18.30
2023-05-11T06:01:20.356Z,18.33
2023-05-11T06:03:49.047Z,18.43
2023-05-11T06:06:19.004Z,18.53
2023-05-11T06:08:47.322Z,18.55
2023-05-11T06:11:15.655Z,18.61
2023-05-11T06:13:43.749Z,18.67
2023-05-11T06:16:11.993Z,18.66
2023-05-11T06:18:40.201Z,18.58
2023-05-11T06:21:09.155Z,18.63
2023-05-11T06:23:38.769Z,18.80
2023-05-11T06:26:06.880Z,18.95
2023-05-11T06:28:35.920Z,19.01
2023-05-11T06:31:07.039Z,19.01
2023-05-11T06:33:37.477Z,19.07
2023-05-11T06:36:10.924Z,19.10
2023-05-11T06:38:40.554Z,19.11
2023-05-11T06:41:11.408Z,19.11
2023-05-11T06:43:39.665Z,19.15
2023-05-11T06:46:19.461Z,19.22
2023-05-11T06:48:47.638Z,19.23
2023-05-11T06:51:15.747Z,19.16
2023-05-11T06:53:46.798Z,19.16
2023-05-11T06:56:14.877Z,19.18
2023-05-11T06:58:43.028Z,19.23
2023-05-11T07:01:12.755Z,19.24
2023-05-11T07:03:40.887Z,19.09
2023-05-11T07:06:09.208Z,19.01
2023-05-11T07:08:37.300Z,18.93
2023-05-11T07:11:06.868Z,18.95
2023-05-11T07:13:34.997Z,18.93
2023-05-11T07:16:03.109Z,18.77
2023-05-11T07:18:31.728Z,18.81
2023-05-11T07:20:59.866Z,18.91
2023-05-11T07:23:27.934Z,18.89
2023-05-11T07:25:57.574Z,18.96
2023-05-11T07:28:27.540Z,18.98
2023-05-11T07:30:55.659Z,19.00
2023-05-11T07:33:23.838Z,19.02
2023-05-11T07:35:52.812Z,19.15
2023-05-11T07:38:21.192Z,19.14
2023-05-11T07:40:49.219Z,19.20
2023-05-11T07:43:17.256Z,19.26
2023-05-11T07:45:46.774Z,19.28
2023-05-11T07:48:14.913Z,19.26
2023-05-11T07:50:44.003Z,19.43
2023-05-11T07:53:12.478Z,19.53
2023-05-11T07:55:40.684Z,19.57
2023-05-11T07:58:09.068Z,19.75
2023-05-11T08:00:37.563Z,19.87
2023-05-11T08:03:07.530Z,19.96
2023-05-11T08:05:37.925Z,20.10
2023-05-11T08:08:06.506Z,20.20
2023-05-11T08:10:34.629Z,20.28
2023-05-11T08:13:02.731Z,20.36
2023-05-11T08:15:31.198Z,20.45
2023-05-11T08:17:59.367Z,20.26
2023-05-11T08:20:28.894Z,20.09
2023-05-11T08:22:57.902Z,20.17
2023-05-11T08:25:25.951Z,20.26
2023-05-11T08:27:54.038Z,20.37
2023-05-11T08:30:22.541Z,20.48
2023-05-11T08:32:58.732Z,20.59
2023-05-11T08:35:28.842Z,20.65
2023-05-11T08:37:56.895Z,20.73
2023-05-11T08:40:28.757Z,20.55
2023-05-11T08:42:57.924Z,20.54
2023-05-11T08:45:27.410Z,20.51
2023-05-11T08:47:55.730Z,20.51
2023-05-11T08:50:23.979Z,20.54
2023-05-11T08:52:53.456Z,20.64
2023-05-11T08:55:23.402Z,20.77
2023-05-11T08:57:54.400Z,20.89
2023-05-11T09:00:24.145Z,20.96
2023-05-11T09:02:53.481Z,21.01
2023-05-11T09:05:22.201Z,20.99
2023-05-11T09:07:54.407Z,20.84
2023-05-11T09:10:22.751Z,20.92
2023-05-11T09:12:51.587Z,21.09
2023-05-11T09:15:21.773Z,21.13
2023-05-11T09:17:57.969Z,21.16
2023-05-11T09:20:32.011Z,21.15
2023-05-11T09:23:09.785Z,21.21
2023-05-11T09:25:42.752Z,21.29
2023-05-11T09:28:15.870Z,21.32
2023-05-11T09:30:50.467Z,21.38
2023-05-11T09:33:27.567Z,21.51
2023-05-11T09:36:01.099Z,21.73
2023-05-11T09:38:31.117Z,21.82
2023-05-11T09:41:05.306Z,21.94
2023-05-11T09:43:34.187Z,22.09
2023-05-11T09:46:07.710Z,22.22
2023-05-11T09:48:36.776Z,22.31
2023-05-11T09:51:06.992Z,22.39
2023-05-11T09:53:52.273Z,22.36
2023-05-11T09:56:43.722Z,22.38
2023-05-11T09:59:19.802Z,22.41
2023-05-11T10:02:01.943Z,22.38
2023-05-11T10:04:34.196Z,22.62
2023-05-11T10:07:04.880Z,22.86
2023-05-11T10:09:35.207Z,23.00
2023-05-11T10:12:04.377Z,23.02
2023-05-11T10:14:34.658Z,23.02
2023-05-11T10:17:04.293Z,22.96
2023-05-11T10:19:34.153Z,22.98
2023-05-11T10:22:03.837Z,22.97
2023-05-11T10:24:34.509Z,22.83
2023-05-11T10:27:05.047Z,22.80
2023-05-11T10:29:34.035Z,22.70
2023-05-11T10:32:03.403Z,22.32
2023-05-11T10:34:33.733Z,22.13
2023-05-11T10:37:02.900Z,22.13
2023-05-11T10:39:31.956Z,22.33
2023-05-11T10:42:36.387Z,22.47
2023-05-11T10:45:17.684Z,22.50
2023-05-11T10:48:26.118Z,22.58
2023-05-11T10:51:05.610Z,22.64
2023-05-11T10:53:47.627Z,22.63
2023-05-11T10:56:30.532Z,22.29
2023-05-11T10:59:22.494Z,22.12
2023-05-11T11:01:52.370Z,22.20
2023-05-11T11:04:20.797Z,22.28
2023-05-11T11:07:05.547Z,22.31
2023-05-11T11:09:52.717Z,22.40
2023-05-11T11:12:22.452Z,22.54
2023-05-11T11:15:00.256Z,22.70
2023-05-11T11:17:32.062Z,22.83
2023-05-11T11:20:02.189Z,22.81
2023-05-11T11:22:50.396Z,22.78
2023-05-11T11:26:00.920Z,22.71
2023-05-11T11:28:29.166Z,22.88
2023-05-11T11:31:26.733Z,23.05
2023-05-11T11:33:59.390Z,23.12
2023-05-11T11:37:03.531Z,23.03
2023-05-11T11:39:50.170Z,22.93
2023-05-11T11:42:19.736Z,22.87
2023-05-11T11:44:48.556Z,22.87
2023-05-11T11:47:19.884Z,23.05
2023-05-11T11:49:50.440Z,23.14
2023-05-11T11:52:34.747Z,23.11
2023-05-11T11:55:05.361Z,23.14
2023-05-11T11:57:51.226Z,23.21
2023-05-11T12:00:22.829Z,23.27
2023-05-11T12:02:54.511Z,23.27
2023-05-11T12:05:28.920Z,23.27
2023-05-11T12:08:01.304Z,23.44
2023-05-11T12:10:29.783Z,23.49
2023-05-11T12:13:00.180Z,23.52
2023-05-11T12:15:30.686Z,23.61
2023-05-11T12:18:02.868Z,23.73
2023-05-11T12:20:31.235Z,23.81
2023-05-11T12:22:59.603Z,23.97
2023-05-11T12:25:28.120Z,24.24
2023-05-11T12:28:00.479Z,24.63
2023-05-11T12:30:30.603Z,24.93
2023-05-11T12:33:01.460Z,25.20
2023-05-11T12:35:32.271Z,25.34
2023-05-11T12:38:02.382Z,25.27
2023-05-11T12:40:32.074Z,25.06
2023-05-11T12:43:01.542Z,25.16
2023-05-11T12:45:30.376Z,25.42
2023-05-11T12:48:00.671Z,25.49
2023-05-11T12:50:29.047Z,25.43
2023-05-11T12:53:13.562Z,25.50
2023-05-11T12:55:41.940Z,25.74
2023-05-11T12:58:11.942Z,25.88
2023-05-11T13:00:52.628Z,25.97
2023-05-11T13:03:26.650Z,26.02
2023-05-11T13:06:05.840Z,26.03
2023-05-11T13:08:34.340Z,26.10
2023-05-11T13:11:17.814Z,26.21
2023-05-11T13:13:46.177Z,26.20
2023-05-11T13:16:25.736Z,26.20
2023-05-11T13:19:03.390Z,26.28
2023-05-11T13:21:33.258Z,26.28
2023-05-11T13:24:03.927Z,26.19
2023-05-11T13:26:32.965Z,26.34
2023-05-11T13:31:32.535Z,26.37
2023-05-11T13:34:02.209Z,26.12
2023-05-11T13:36:31.493Z,26.04
2023-05-11T13:39:00.647Z,26.05
2023-05-11T13:41:35.760Z,26.06
2023-05-11T13:44:04.408Z,26.09
2023-05-11T13:46:32.826Z,26.08
2023-05-11T13:49:03.881Z,26.03
2023-05-11T13:51:33.020Z,26.15
2023-05-11T13:54:02.610Z,26.16
2023-05-11T13:56:31.012Z,26.17
2023-05-11T13:59:00.078Z,26.03
2023-05-11T14:01:28.775Z,25.97
2023-05-11T14:03:57.959Z,25.90
2023-05-11T14:06:27.789Z,25.75
2023-05-11T14:08:56.131Z,25.68
2023-05-11T14:11:24.391Z,25.73
2023-05-11T14:13:53.046Z,25.64
2023-05-11T14:16:21.617Z,25.61
2023-05-11T14:18:50.894Z,25.51
2023-05-11T14:21:19.339Z,25.38
2023-05-11T14:24:05.965Z,25.35
2023-05-11T14:26:37.309Z,25.28
2023-05-11T14:29:05.619Z,25.20
2023-05-11T14:31:35.410Z,25.10
2023-05-11T14:34:04.089Z,25.04
2023-05-11T14:36:32.902Z,25.01
2023-05-11T14:39:02.763Z,24.92
2023-05-11T14:41:31.454Z,25.01
2023-05-11T14:43:59.775Z,25.10
2023-05-11T14:46:28.163Z,25.20
2023-05-11T14:48:56.375Z,25.15
2023-05-11T14:51:24.652Z,25.17
2023-05-11T14:53:53.223Z,25.30
2023-05-11T14:56:23.423Z,25.24
2023-05-11T14:58:51.729Z,25.07
2023-05-11T15:01:20.014Z,25.00
2023-05-11T15:03:48.404Z,25.00
2023-05-11T15:06:21.235Z,24.98
2023-05-11T15:08:49.695Z,24.97
2023-05-11T15:11:18.330Z,24.85
2023-05-11T15:13:48.570Z,24.84
2023-05-11T15:16:16.967Z,24.78
2023-05-11T15:18:45.312Z,24.69
2023-05-11T15:21:13.637Z,24.61
2023-05-11T15:23:41.927Z,24.46
2023-05-11T15:26:10.361Z,24.35
2023-05-11T15:28:38.650Z,24.29
2023-05-11T15:31:08.523Z,24.27
2023-05-11T15:33:37.026Z,24.23
2023-05-11T15:36:06.520Z,24.14
2023-05-11T15:38:34.837Z,24.05
2023-05-11T15:41:03.825Z,23.96
2023-05-11T15:43:32.753Z,23.96
2023-05-11T15:46:01.121Z,23.86
2023-05-11T15:48:30.924Z,23.73
2023-05-11T15:51:01.267Z,23.74
2023-05-11T15:53:30.031Z,23.71
2023-05-11T15:55:58.483Z,23.75
2023-05-11T15:58:26.754Z,23.69
2023-05-11T16:00:56.249Z,23.62
2023-05-11T16:03:26.488Z,23.59
2023-05-11T16:05:56.373Z,23.59
2023-05-11T16:08:24.671Z,23.44
2023-05-11T16:10:52.927Z,23.41
2023-05-11T16:13:21.292Z,23.43
2023-05-11T16:15:49.815Z,23.44
2023-05-11T16:18:19.828Z,23.51
2023-05-11T16:20:48.559Z,23.46
2023-05-11T16:23:18.330Z,23.42
2023-05-11T16:25:47.665Z,23.29
2023-05-11T16:28:15.691Z,23.06
2023-05-11T16:30:43.735Z,22.81
2023-05-11T16:33:11.790Z,22.54
2023-05-11T16:35:39.935Z,22.41
2023-05-11T16:38:07.939Z,22.32
2023-05-11T16:40:37.397Z,22.18
2023-05-11T16:43:06.185Z,22.07
2023-05-11T16:45:34.161Z,21.96
2023-05-11T16:48:02.212Z,21.87
2023-05-11T16:50:30.381Z,21.81
2023-05-11T16:52:58.652Z,21.75
2023-05-11T16:55:26.757Z,21.66
2023-05-11T16:57:56.113Z,21.62
2023-05-11T17:00:24.137Z,21.50
2023-05-11T17:02:52.257Z,21.44
2023-05-11T17:05:21.578Z,21.34
2023-05-11T17:07:49.692Z,21.20
2023-05-11T17:10:18.355Z,21.02
2023-05-11T17:12:46.672Z,20.91
2023-05-11T17:15:16.216Z,20.91
2023-05-11T17:17:44.349Z,20.87
2023-05-11T17:20:13.445Z,20.86
2023-05-11T17:22:41.480Z,20.81
2023-05-11T17:25:10.290Z,20.85
2023-05-11T17:27:38.505Z,20.88
2023-05-11T17:30:07.671Z,20.88
2023-05-11T17:32:38.260Z,20.83
2023-05-11T17:35:07.773Z,20.77
2023-05-11T17:37:35.821Z,20.73
2023-05-11T17:40:05.200Z,20.72
2023-05-11T17:42:34.198Z,20.69
2023-05-11T17:45:02.552Z,20.62
2023-05-11T17:47:31.330Z,20.53
2023-05-11T17:50:00.984Z,20.48
2023-05-11T17:52:29.062Z,20.40
2023-05-11T17:54:58.624Z,20.33
2023-05-11T17:57:27.828Z,20.26
2023-05-11T17:59:55.876Z,20.18
2023-05-11T18:02:24.310Z,20.09
2023-05-11T18:04:52.410Z,20.11
2023-05-11T18:07:21.802Z,20.16
2023-05-11T18:09:49.819Z,20.18
2023-05-11T18:12:17.822Z,20.16
2023-05-11T18:14:45.873Z,20.17
2023-05-11T18:17:14.303Z,20.14
2023-05-11T18:19:42.840Z,20.05
2023-05-11T18:22:11.389Z,20.06
2023-05-11T18:24:40.768Z,20.05
2023-05-11T18:27:08.783Z,20.07
2023-05-11T18:29:37.434Z,20.05
2023-05-11T18:32:06.082Z,20.04
2023-05-11T18:34:34.534Z,20.05
2023-05-11T18:37:02.910Z,20.01
2023-05-11T18:39:31.079Z,20.00
2023-05-11T18:42:02.606Z,19.97
2023-05-11T18:44:30.722Z,19.97
2023-05-11T18:46:58.790Z,19.98
2023-05-11T18:49:27.176Z,19.92
2023-05-11T18:51:55.695Z,19.85
2023-05-11T18:54:23.779Z,19.81
2023-05-11T18:56:51.855Z,19.81
2023-05-11T18:59:21.240Z,19.76
2023-05-11T19:01:49.362Z,19.70
2023-05-11T19:04:19.825Z,19.61
2023-05-11T19:06:48.176Z,19.59
2023-05-11T19:09:16.364Z,19.60
2023-05-11T19:11:44.484Z,19.59
2023-05-11T19:14:14.695Z,19.62
2023-05-11T19:16:44.306Z,19.59
2023-05-11T19:19:12.836Z,19.53
2023-05-11T19:21:42.498Z,19.47
2023-05-11T19:24:11.625Z,19.45
2023-05-11T19:26:39.900Z,19.40
2023-05-11T19:29:09.356Z,19.33
2023-05-11T19:31:37.469Z,19.37
2023-05-11T19:34:07.113Z,19.40
2023-05-11T19:36:35.794Z,19.39
2023-05-11T19:39:04.423Z,19.32
2023-05-11T19:41:33.247Z,19.25
2023-05-11T19:44:01.738Z,19.26
2023-05-11T19:46:30.072Z,19.26
2023-05-11T19:48:58.124Z,19.23
2023-05-11T19:51:27.550Z,19.26
2023-05-11T19:53:55.930Z,19.30
2023-05-11T19:56:23.927Z,19.29
2023-05-11T19:58:51.943Z,19.31
2023-05-11T20:01:19.980Z,19.25
2023-05-11T20:03:48.236Z,19.17
2023-05-11T20:06:16.424Z,19.15
2023-05-11T20:08:48.474Z,19.13
2023-05-11T20:11:16.888Z,19.12
2023-05-11T20:13:46.792Z,19.08
2023-05-11T20:16:15.295Z,19.02
2023-05-11T20:18:43.560Z,19.00
2023-05-11T20:21:11.740Z,19.01
2023-05-11T20:23:40.393Z,18.99
2023-05-11T20:26:09.847Z,18.99
2023-05-11T20:28:39.461Z,18.95
2023-05-11T20:31:09.606Z,18.97
2023-05-11T20:36:09.420Z,19.01
2023-05-11T20:38:37.502Z,19.07
2023-05-11T20:41:05.636Z,19.05
2023-05-11T20:43:35.052Z,18.96
2023-05-11T20:46:05.770Z,18.94
2023-05-11T20:48:40.504Z,18.88
2023-05-11T20:51:10.198Z,18.83
2023-05-11T20:53:38.396Z,18.82
2023-05-11T20:56:06.773Z,18.88
2023-05-11T20:58:36.283Z,18.89
2023-05-11T21:01:04.325Z,18.85
2023-05-11T21:03:32.583Z,18.87
2023-05-11T21:06:00.658Z,18.74
2023-05-11T21:08:28.732Z,18.71
2023-05-11T21:10:56.838Z,18.82
2023-05-11T21:13:24.999Z,18.89
2023-05-11T21:15:54.497Z,18.95
2023-05-11T21:18:23.243Z,18.97
2023-05-11T21:20:51.873Z,18.98
2023-05-11T21:23:20.273Z,18.92
2023-05-11T21:25:53.090Z,18.85
2023-05-11T21:28:21.133Z,18.84
2023-05-11T21:30:50.091Z,18.76
2023-05-11T21:33:19.754Z,18.80
2023-05-11T21:35:47.885Z,18.88
2023-05-11T21:38:17.132Z,18.95
2023-05-11T21:40:45.328Z,19.02
2023-05-11T21:43:14.043Z,19.06
2023-05-11T21:45:42.209Z,19.02
2023-05-11T21:48:10.196Z,19.01
2023-05-11T21:50:39.633Z,18.96
2023-05-11T21:53:07.701Z,18.96
2023-05-11T21:55:36.172Z,18.98
2023-05-11T21:58:04.480Z,19.01
2023-05-11T22:00:33.037Z,19.00
2023-05-11T22:03:01.431Z,18.93
2023-05-11T22:05:29.581Z,18.91
2023-05-11T22:08:13.177Z,18.92
2023-05-11T22:10:43.012Z,18.92
2023-05-11T22:13:11.149Z,18.91
2023-05-11T22:15:39.339Z,18.95
2023-05-11T22:18:07.410Z,18.97
2023-05-11T22:20:35.546Z,18.98
2023-05-11T22:23:04.962Z,19.01
2023-05-11T22:25:33.184Z,19.02
2023-05-11T22:28:01.277Z,19.05
2023-05-11T22:30:29.268Z,18.95
2023-05-11T22:32:57.382Z,18.91
2023-05-11T22:35:25.733Z,18.88
2023-05-11T22:37:54.235Z,18.91
2023-05-11T22:40:23.647Z,18.97
2023-05-11T22:42:51.790Z,18.93
2023-05-11T22:45:19.842Z,18.99
2023-05-11T22:47:48.400Z,19.00
2023-05-11T22:50:16.565Z,19.06
2023-05-11T22:52:44.720Z,19.06
2023-05-11T22:55:13.072Z,19.02
2023-05-11T22:57:42.673Z,19.02
2023-05-11T23:00:11.703Z,19.03
2023-05-11T23:02:40.273Z,19.03
2023-05-11T23:05:09.330Z,19.00
2023-05-11T23:07:37.365Z,19.00
2023-05-11T23:10:06.011Z,18.99
2023-05-11T23:12:34.030Z,18.97
2023-05-11T23:15:03.813Z,18.99
2023-05-11T23:17:31.870Z,19.03
2023-05-11T23:20:00.058Z,18.99
2023-05-11T23:22:28.092Z,18.98
2023-05-11T23:24:56.746Z,18.97
2023-05-11T23:27:24.795Z,18.96
2023-05-11T23:29:52.889Z,18.97
2023-05-11T23:32:22.295Z,19.05
2023-05-11T23:34:50.300Z,19.07
2023-05-11T23:37:18.333Z,19.11
2023-05-11T23:39:46.325Z,19.10
2023-05-11T23:42:14.488Z,19.12
2023-05-11T23:44:42.544Z,19.13
2023-05-11T23:47:10.666Z,19.17
2023-05-11T23:49:40.114Z,19.17
2023-05-11T23:52:09.490Z,19.15
2023-05-11T23:54:37.654Z,19.16
2023-05-11T23:57:06.219Z,19.17
2023-05-11T23:59:34.223Z,19.15
